Time;durP1;ratioP1;P1;durP2;ratioP2;P2;SDS_P1;SDS_P2;PMS_P1;PMS_P2;Temp;Humidity;BMP_temperature;BMP_pressure;BME280_temperature;BME280_humidity;BME280_pressure;Samples;Min_cycle;Max_cycle;Signal;HPM_P1;HPM_P2
2023/11/10 00:01:16;;;;;;;;;2.67;1.00;;;;;-144.24;100.00;60536.00;5013792;28;45456;-72
2023/11/10 00:03:41;;;;;;;;;1.00;0.67;;;;;-144.24;100.00;60536.00;5014698;28;45757;-72
2023/11/10 00:06:07;;;;;;;;;2.67;1.00;;;;;-144.24;100.00;60536.00;5007646;28;45942;-72
2023/11/10 00:08:33;;;;;;;;;1.00;1.00;;;;;-144.24;100.00;60536.00;5006576;28;51991;-72
2023/11/10 00:10:58;;;;;;;;;2.00;1.00;;;;;-144.24;100.00;60536.00;5015797;28;45405;-71
2023/11/10 00:13:24;;;;;;;;;1.67;1.00;;;;;-144.24;100.00;60536.00;5012037;28;45662;-70
2023/11/10 00:15:49;;;;;;;;;1.67;1.00;;;;;-144.24;100.00;60536.00;5014849;28;45753;-73
2023/11/10 00:18:15;;;;;;;;;2.67;1.00;;;;;-144.24;100.00;60536.00;4987903;28;69203;-73
2023/11/10 00:20:41;;;;;;;;;3.00;1.00;;;;;-144.24;100.00;60536.00;5009517;28;45518;-71
2023/11/10 00:23:07;;;;;;;;;2.67;0.00;;;;;-144.24;100.00;60536.00;5004205;28;45597;-72
2023/11/10 00:25:33;;;;;;;;;0.00;0.00;;;;;-144.24;100.00;60536.00;5013711;28;45954;-70
2023/11/10 00:28:01;;;;;;;;;2.33;0.67;;;;;-144.24;100.00;60536.00;5013633;28;59070;-71
2023/11/10 00:30:26;;;;;;;;;5.33;1.00;;;;;-144.24;100.00;60536.00;5008999;28;45446;-74
2023/11/10 00:32:52;;;;;;;;;3.00;0.00;;;;;-144.24;100.00;60536.00;5015861;28;45392;-73
2023/11/10 00:35:17;;;;;;;;;4.00;1.00;;;;;-144.24;100.00;60536.00;5016723;28;46512;-72
2023/11/10 00:37:43;;;;;;;;;2.33;0.00;;;;;-144.24;100.00;60536.00;4995031;28;45465;-70
2023/11/10 00:40:09;;;;;;;;;0.67;0.67;;;;;-144.24;100.00;60536.00;5016279;28;45359;-71
2023/11/10 00:42:34;;;;;;;;;2.33;0.00;;;;;-144.24;100.00;60536.00;5016412;28;45563;-72
2023/11/10 00:45:00;;;;;;;;;0.33;0.33;;;;;-144.24;100.00;60536.00;5013648;28;50969;-70
2023/11/10 00:47:25;;;;;;;;;0.00;0.00;;;;;-144.24;100.00;60536.00;5016256;28;45434;-71
2023/11/10 00:49:51;;;;;;;;;0.00;0.00;;;;;-144.24;100.00;60536.00;5014172;28;45250;-71
2023/11/10 00:52:17;;;;;;;;;0.67;0.00;;;;;-144.24;100.00;60536.00;5010891;28;45589;-71
2023/11/10 00:54:42;;;;;;;;;2.00;1.00;;;;;-144.24;100.00;60536.00;5015422;28;46131;-71
2023/11/10 00:57:07;;;;;;;;;2.00;0.67;;;;;-144.24;100.00;60536.00;5014064;28;48635;-71
2023/11/10 00:59:33;;;;;;;;;0.67;0.00;;;;;-144.24;100.00;60536.00;5013338;28;45418;-70
2023/11/10 01:01:58;;;;;;;;;1.00;1.00;;;;;-144.24;100.00;60536.00;5013673;28;56556;-70
2023/11/10 01:04:24;;;;;;;;;4.00;1.33;;;;;-144.24;100.00;60536.00;5008157;28;49167;-72
2023/11/10 01:06:52;;;;;;;;;0.00;0.00;;;;;-144.24;100.00;60536.00;5004151;28;45417;-73
2023/11/10 01:09:18;;;;;;;;;0.00;0.00;;;;;-144.24;100.00;60536.00;5007518;28;45666;-70
2023/11/10 01:11:43;;;;;;;;;0.00;0.00;;;;;-144.24;100.00;60536.00;5010924;28;45498;-71
2023/11/10 01:14:09;;;;;;;;;6.33;0.00;;;;;-144.24;100.00;60536.00;5014887;28;45301;-70
2023/11/10 01:16:34;;;;;;;;;2.00;0.33;;;;;-144.24;100.00;60536.00;5015285;28;57801;-71
2023/11/10 01:19:00;;;;;;;;;1.00;0.00;;;;;-144.24;100.00;60536.00;5014709;28;45426;-72
2023/11/10 01:21:25;;;;;;;;;1.67;1.00;;;;;-144.24;100.00;60536.00;5013555;28;45261;-70
2023/11/10 01:23:52;;;;;;;;;3.00;1.00;;;;;-144.24;100.00;60536.00;5014874;28;46198;-70
2023/11/10 01:26:17;;;;;;;;;0.00;0.00;;;;;-144.24;100.00;60536.00;5010670;28;45470;-72
2023/11/10 01:28:43;;;;;;;;;0.00;0.00;;;;;-144.24;100.00;60536.00;5012489;28;45327;-73
2023/11/10 01:31:09;;;;;;;;;0.33;0.33;;;;;-144.24;100.00;60536.00;5015890;28;45509;-71
2023/11/10 01:33:35;;;;;;;;;0.00;0.00;;;;;-144.24;100.00;60536.00;5015842;28;45526;-71
2023/11/10 01:36:00;;;;;;;;;0.00;0.00;;;;;-144.24;100.00;60536.00;5015808;28;45541;-70
2023/11/10 01:38:26;;;;;;;;;1.33;0.00;;;;;-144.24;100.00;60536.00;5015807;28;45493;-71
2023/11/10 01:40:51;;;;;;;;;0.00;0.00;;;;;-144.24;100.00;60536.00;4987408;28;45478;-70
2023/11/10 01:43:16;;;;;;;;;4.33;0.00;;;;;-144.24;100.00;60536.00;5015855;28;45504;-70
2023/11/10 01:45:43;;;;;;;;;1.00;0.00;;;;;-144.24;100.00;60536.00;4997055;28;64155;-70
2023/11/10 01:48:11;;;;;;;;;1.67;1.00;;;;;-144.24;100.00;60536.00;5009335;28;45467;-73
2023/11/10 01:50:40;;;;;;;;;2.33;0.00;;;;;-144.24;100.00;60536.00;5016321;28;45514;-70
2023/11/10 01:53:08;;;;;;;;;0.00;0.00;;;;;-144.24;100.00;60536.00;5015464;28;45599;-71
2023/11/10 01:55:35;;;;;;;;;1.67;0.00;;;;;-144.24;100.00;60536.00;5012380;28;45397;-71
2023/11/10 01:58:01;;;;;;;;;3.00;0.00;;;;;-144.24;100.00;60536.00;5013583;28;45454;-71
2023/11/10 02:00:30;;;;;;;;;0.00;0.00;;;;;-144.24;100.00;60536.00;4996040;28;45303;-70
2023/11/10 02:03:05;;;;;;;;;2.00;1.00;;;;;-144.24;100.00;60536.00;5016634;28;45627;-71
2023/11/10 02:05:31;;;;;;;;;1.33;0.00;;;;;-144.24;100.00;60536.00;5010718;28;45550;-71
2023/11/10 02:07:57;;;;;;;;;1.67;0.00;;;;;-144.24;100.00;60536.00;5011850;28;45513;-70
2023/11/10 02:10:22;;;;;;;;;1.67;1.00;;;;;-144.24;100.00;60536.00;4995053;28;45449;-71
2023/11/10 02:12:56;;;;;;;;;2.33;0.00;;;;;-144.24;100.00;60536.00;5014576;28;64944;-72
2023/11/10 02:15:25;;;;;;;;;1.33;0.00;;;;;-144.24;100.00;60536.00;5009355;28;45674;-73
2023/11/10 02:17:51;;;;;;;;;0.00;0.00;;;;;-144.24;100.00;60536.00;5005981;28;45263;-72
2023/11/10 02:20:16;;;;;;;;;0.00;0.00;;;;;-144.24;100.00;60536.00;5010256;28;45450;-71
2023/11/10 02:22:49;;;;;;;;;2.33;0.00;;;;;-144.24;100.00;60536.00;5015513;28;45645;-71
2023/11/10 02:25:19;;;;;;;;;0.00;0.00;;;;;-144.24;100.00;60536.00;5008303;28;45540;-71
2023/11/10 02:27:44;;;;;;;;;0.00;0.00;;;;;-144.24;100.00;60536.00;5013953;28;45404;-72
2023/11/10 02:30:10;;;;;;;;;2.00;1.00;;;;;-144.24;100.00;60536.00;5013989;28;46022;-70
2023/11/10 02:32:36;;;;;;;;;1.33;0.00;;;;;-144.24;100.00;60536.00;5015121;28;45726;-72
2023/11/10 02:35:02;;;;;;;;;0.00;0.00;;;;;-144.24;100.00;60536.00;4999674;28;46325;-70
2023/11/10 02:37:27;;;;;;;;;1.00;0.00;;;;;-144.24;100.00;60536.00;5000220;28;45579;-72
2023/11/10 02:39:53;;;;;;;;;3.00;0.00;;;;;-144.24;100.00;60536.00;5009567;28;45395;-74
2023/11/10 02:42:18;;;;;;;;;2.00;0.00;;;;;-144.24;100.00;60536.00;5015474;28;74302;-72
2023/11/10 02:44:43;;;;;;;;;1.00;1.00;;;;;-144.24;100.00;60536.00;5013442;28;56644;-71
2023/11/10 02:47:09;;;;;;;;;2.00;0.00;;;;;-144.24;100.00;60536.00;5017970;28;52790;-73
2023/11/10 02:49:34;;;;;;;;;2.33;0.00;;;;;-144.24;100.00;60536.00;5018630;28;45216;-71
2023/11/10 02:51:59;;;;;;;;;0.67;0.00;;;;;-144.24;100.00;60536.00;5016605;28;74678;-73
2023/11/10 02:54:25;;;;;;;;;2.00;0.00;;;;;-144.24;100.00;60536.00;5016915;28;45549;-70
2023/11/10 02:56:50;;;;;;;;;1.00;0.00;;;;;-144.24;100.00;60536.00;5017555;28;66191;-71
2023/11/10 02:59:16;;;;;;;;;0.00;0.00;;;;;-144.24;100.00;60536.00;5013888;28;67970;-71
2023/11/10 03:01:42;;;;;;;;;2.00;0.33;;;;;-144.24;100.00;60536.00;5017767;28;45334;-71
2023/11/10 03:04:07;;;;;;;;;0.00;0.00;;;;;-144.24;100.00;60536.00;5018275;28;45509;-71
2023/11/10 03:06:33;;;;;;;;;1.00;1.00;;;;;-144.24;100.00;60536.00;5016890;28;66731;-70
2023/11/10 03:08:58;;;;;;;;;1.00;1.00;;;;;-144.24;100.00;60536.00;5014368;28;66715;-71
2023/11/10 03:11:24;;;;;;;;;1.00;0.00;;;;;-144.24;100.00;60536.00;5013305;28;45588;-73
2023/11/10 03:13:50;;;;;;;;;0.00;0.00;;;;;-144.24;100.00;60536.00;5014808;28;45420;-72
2023/11/10 03:16:16;;;;;;;;;0.00;0.00;;;;;-144.24;100.00;60536.00;4996433;28;45463;-70
2023/11/10 03:18:41;;;;;;;;;3.67;0.67;;;;;-144.24;100.00;60536.00;5015578;28;45611;-71
2023/11/10 03:21:07;;;;;;;;;3.00;0.00;;;;;-144.24;100.00;60536.00;5012053;28;75887;-71
2023/11/10 03:23:34;;;;;;;;;1.00;1.00;;;;;-144.24;100.00;60536.00;5014206;28;71601;-71
2023/11/10 03:26:00;;;;;;;;;3.00;1.00;;;;;-144.24;100.00;60536.00;5014872;28;45522;-71
2023/11/10 03:28:26;;;;;;;;;0.67;0.00;;;;;-144.24;100.00;60536.00;5015395;28;45451;-70
2023/11/10 03:30:52;;;;;;;;;0.33;0.00;;;;;-144.24;100.00;60536.00;4993840;28;45624;-70
2023/11/10 03:33:17;;;;;;;;;2.33;0.00;;;;;-144.24;100.00;60536.00;5018084;28;45351;-71
2023/11/10 03:35:44;;;;;;;;;1.33;0.00;;;;;-144.24;100.00;60536.00;5010352;28;45279;-72
2023/11/10 03:38:10;;;;;;;;;0.00;0.00;;;;;-144.24;100.00;60536.00;5015517;28;45298;-71
2023/11/10 03:40:36;;;;;;;;;3.00;1.00;;;;;-144.24;100.00;60536.00;5017545;28;46434;-72
2023/11/10 03:43:01;;;;;;;;;0.00;0.00;;;;;-144.24;100.00;60536.00;4998040;28;45516;-70
2023/11/10 03:45:27;;;;;;;;;0.00;0.00;;;;;-144.24;100.00;60536.00;4994899;28;45796;-71
2023/11/10 03:47:52;;;;;;;;;6.67;1.00;;;;;-144.24;100.00;60536.00;5015171;28;45489;-71
2023/11/10 03:50:18;;;;;;;;;0.00;0.00;;;;;-144.24;100.00;60536.00;5012649;28;45504;-71
2023/11/10 03:52:43;;;;;;;;;6.00;0.00;;;;;-144.24;100.00;60536.00;5013732;28;45525;-71
2023/11/10 03:55:08;;;;;;;;;2.00;0.67;;;;;-144.24;100.00;60536.00;5012167;28;68919;-70
2023/11/10 03:57:34;;;;;;;;;2.00;1.00;;;;;-144.24;100.00;60536.00;5013313;28;54898;-73
2023/11/10 03:59:59;;;;;;;;;0.33;0.33;;;;;-144.24;100.00;60536.00;5012145;28;46275;-73
2023/11/10 04:02:24;;;;;;;;;0.00;0.00;;;;;-144.24;100.00;60536.00;5015615;28;45437;-71
2023/11/10 04:04:50;;;;;;;;;3.00;1.00;;;;;-144.24;100.00;60536.00;5016722;28;69438;-72
2023/11/10 04:07:15;;;;;;;;;0.00;0.00;;;;;-144.24;100.00;60536.00;5011226;28;63749;-74
2023/11/10 04:09:41;;;;;;;;;2.00;0.00;;;;;-144.24;100.00;60536.00;5011427;28;74448;-72
2023/11/10 04:12:09;;;;;;;;;0.00;0.00;;;;;-144.24;100.00;60536.00;5008695;28;45339;-71
2023/11/10 04:14:35;;;;;;;;;0.00;0.00;;;;;-144.24;100.00;60536.00;5018062;28;45442;-70
2023/11/10 04:17:01;;;;;;;;;4.00;0.00;;;;;-144.24;100.00;60536.00;5017061;28;45673;-70
2023/11/10 04:19:27;;;;;;;;;2.00;1.00;;;;;-144.24;100.00;60536.00;5016037;28;46598;-70
2023/11/10 04:21:52;;;;;;;;;2.00;0.00;;;;;-144.24;100.00;60536.00;5012155;28;45361;-72
2023/11/10 04:24:18;;;;;;;;;0.00;0.00;;;;;-144.24;100.00;60536.00;5017182;28;45307;-71
2023/11/10 04:26:45;;;;;;;;;4.00;0.00;;;;;-144.24;100.00;60536.00;4998269;28;45636;-73
2023/11/10 04:29:10;;;;;;;;;5.67;0.67;;;;;-144.24;100.00;60536.00;5015580;28;45778;-70
2023/11/10 04:31:36;;;;;;;;;0.00;0.00;;;;;-144.24;100.00;60536.00;5012434;28;45477;-71
2023/11/10 04:34:02;;;;;;;;;0.33;0.33;;;;;-144.24;100.00;60536.00;5015525;28;45372;-71
2023/11/10 04:36:29;;;;;;;;;0.00;0.00;;;;;-144.24;100.00;60536.00;5014996;28;45584;-73
2023/11/10 04:38:55;;;;;;;;;3.00;0.00;;;;;-144.24;100.00;60536.00;5008573;28;46007;-71
2023/11/10 04:41:24;;;;;;;;;0.67;0.00;;;;;-144.24;100.00;60536.00;5001291;28;45481;-72
2023/11/10 04:43:49;;;;;;;;;0.33;0.00;;;;;-144.24;100.00;60536.00;5015202;28;45204;-70
2023/11/10 04:46:14;;;;;;;;;2.00;0.00;;;;;-144.24;100.00;60536.00;5014185;28;45687;-71
2023/11/10 04:48:40;;;;;;;;;2.00;0.00;;;;;-144.24;100.00;60536.00;5010299;28;74041;-71
2023/11/10 04:51:05;;;;;;;;;2.00;1.00;;;;;-144.24;100.00;60536.00;5016025;28;66908;-72
2023/11/10 04:53:31;;;;;;;;;2.00;0.00;;;;;-144.24;100.00;60536.00;4999383;28;45429;-72
2023/11/10 04:55:56;;;;;;;;;2.00;0.33;;;;;-144.24;100.00;60536.00;5014198;28;45457;-70
2023/11/10 04:58:22;;;;;;;;;0.00;0.00;;;;;-144.24;100.00;60536.00;5010671;28;75229;-70
2023/11/10 05:00:47;;;;;;;;;2.33;0.00;;;;;-144.24;100.00;60536.00;5007762;28;45476;-71
2023/11/10 05:03:15;;;;;;;;;1.67;0.00;;;;;-144.24;100.00;60536.00;5008093;28;45961;-73
2023/11/10 05:05:40;;;;;;;;;1.00;0.00;;;;;-144.24;100.00;60536.00;5014309;28;45354;-73
2023/11/10 05:08:06;;;;;;;;;2.67;0.67;;;;;-144.24;100.00;60536.00;5014941;28;58766;-71
2023/11/10 05:10:31;;;;;;;;;0.00;0.00;;;;;-144.24;100.00;60536.00;4998328;28;45502;-71
2023/11/10 05:12:56;;;;;;;;;0.00;0.00;;;;;-144.24;100.00;60536.00;5016066;28;45490;-70
2023/11/10 05:15:22;;;;;;;;;2.00;0.00;;;;;-144.24;100.00;60536.00;5015158;28;54522;-71
2023/11/10 05:17:47;;;;;;;;;3.67;1.00;;;;;-144.24;100.00;60536.00;5013929;28;71651;-73
2023/11/10 05:20:13;;;;;;;;;3.00;0.00;;;;;-144.24;100.00;60536.00;4996525;28;73107;-71
2023/11/10 05:22:40;;;;;;;;;1.67;0.00;;;;;-144.24;100.00;60536.00;4998171;28;45329;-70
2023/11/10 05:25:10;;;;;;;;;1.00;1.00;;;;;-144.24;100.00;60536.00;5016241;28;45351;-71
2023/11/10 05:27:36;;;;;;;;;0.00;0.00;;;;;-144.24;100.00;60536.00;5008663;28;46644;-72
2023/11/10 05:30:01;;;;;;;;;0.00;0.00;;;;;-144.24;100.00;60536.00;5010349;28;71048;-71
2023/11/10 05:32:26;;;;;;;;;1.00;1.00;;;;;-144.24;100.00;60536.00;5013371;28;59344;-71
2023/11/10 05:34:54;;;;;;;;;3.33;1.00;;;;;-144.24;100.00;60536.00;5011652;28;51575;-72
2023/11/10 05:37:20;;;;;;;;;2.00;0.00;;;;;-144.24;100.00;60536.00;4994622;28;46328;-71
2023/11/10 05:39:46;;;;;;;;;1.67;0.00;;;;;-144.24;100.00;60536.00;5016343;28;45279;-70
2023/11/10 05:42:13;;;;;;;;;1.33;0.00;;;;;-144.24;100.00;60536.00;5013559;28;45470;-73
2023/11/10 05:44:39;;;;;;;;;6.00;0.00;;;;;-144.24;100.00;60536.00;4996848;28;45523;-71
2023/11/10 05:47:04;;;;;;;;;2.00;0.00;;;;;-144.24;100.00;60536.00;5010291;28;45599;-71
2023/11/10 05:49:29;;;;;;;;;0.00;0.00;;;;;-144.24;100.00;60536.00;5011973;28;45402;-70
2023/11/10 05:51:55;;;;;;;;;2.00;0.00;;;;;-144.24;100.00;60536.00;5013434;28;45506;-71
2023/11/10 05:54:20;;;;;;;;;2.00;0.00;;;;;-144.24;100.00;60536.00;4995224;28;61873;-70
2023/11/10 05:56:46;;;;;;;;;3.00;0.00;;;;;-144.24;100.00;60536.00;5013708;28;46409;-73
2023/11/10 05:59:11;;;;;;;;;4.00;1.00;;;;;-144.24;100.00;60536.00;5006165;28;45465;-72
2023/11/10 06:01:36;;;;;;;;;3.00;1.00;;;;;-144.24;100.00;60536.00;5013488;28;69293;-71
2023/11/10 06:04:02;;;;;;;;;0.00;0.00;;;;;-144.24;100.00;60536.00;5005047;28;61795;-71
2023/11/10 06:06:28;;;;;;;;;1.00;0.00;;;;;-144.24;100.00;60536.00;5015525;28;45589;-71
2023/11/10 06:08:54;;;;;;;;;1.33;1.00;;;;;-144.24;100.00;60536.00;5009575;28;45565;-71
2023/11/10 06:11:20;;;;;;;;;2.33;0.00;;;;;-144.24;100.00;60536.00;5009257;28;45500;-71
2023/11/10 06:13:47;;;;;;;;;0.67;0.00;;;;;-144.24;100.00;60536.00;5014431;28;45478;-73
2023/11/10 06:16:13;;;;;;;;;0.00;0.00;;;;;-144.24;100.00;60536.00;5015180;28;46321;-72
2023/11/10 06:18:39;;;;;;;;;1.00;0.00;;;;;-144.24;100.00;60536.00;5009982;28;45431;-72
2023/11/10 06:21:04;;;;;;;;;1.33;0.00;;;;;-144.24;100.00;60536.00;5015629;28;45217;-71
2023/11/10 06:23:30;;;;;;;;;6.33;1.33;;;;;-144.24;100.00;60536.00;5008406;28;45622;-70
2023/11/10 06:25:55;;;;;;;;;0.00;0.00;;;;;-144.24;100.00;60536.00;5012153;28;45524;-72
2023/11/10 06:28:20;;;;;;;;;0.67;0.00;;;;;-144.24;100.00;60536.00;5012403;28;71172;-71
2023/11/10 06:30:46;;;;;;;;;7.33;1.00;;;;;-144.24;100.00;60536.00;4997490;28;45507;-72
2023/11/10 06:33:11;;;;;;;;;0.33;0.33;;;;;-144.24;100.00;60536.00;5010452;28;66256;-71
2023/11/10 06:35:36;;;;;;;;;3.00;0.00;;;;;-144.24;100.00;60536.00;5011970;28;74085;-70
2023/11/10 06:38:02;;;;;;;;;3.00;0.00;;;;;-144.24;100.00;60536.00;5012538;28;45262;-73
2023/11/10 06:40:27;;;;;;;;;1.00;1.00;;;;;-144.24;100.00;60536.00;5008681;28;59689;-71
2023/11/10 06:42:52;;;;;;;;;0.00;0.00;;;;;-144.24;100.00;60536.00;5012080;28;68621;-70
2023/11/10 06:45:18;;;;;;;;;2.00;0.00;;;;;-144.24;100.00;60536.00;5010130;28;45775;-69
2023/11/10 06:47:43;;;;;;;;;0.00;0.00;;;;;-144.24;100.00;60536.00;5012265;28;45525;-71
2023/11/10 06:50:09;;;;;;;;;2.00;1.00;;;;;-144.24;100.00;60536.00;5008298;28;68699;-71
2023/11/10 06:52:34;;;;;;;;;0.00;0.00;;;;;-144.24;100.00;60536.00;5008881;28;46111;-70
2023/11/10 06:54:59;;;;;;;;;0.33;0.33;;;;;-144.24;100.00;60536.00;5009475;28;54248;-72
2023/11/10 06:57:26;;;;;;;;;4.00;1.00;;;;;-144.24;100.00;60536.00;5011491;28;47323;-70
2023/11/10 06:59:51;;;;;;;;;2.33;0.00;;;;;-144.24;100.00;60536.00;5010032;28;45401;-69
2023/11/10 07:02:19;;;;;;;;;0.00;0.00;;;;;-144.24;100.00;60536.00;4992897;28;45660;-72
2023/11/10 07:04:45;;;;;;;;;0.00;0.00;;;;;-144.24;100.00;60536.00;5012649;28;45521;-72
2023/11/10 07:07:11;;;;;;;;;3.00;0.00;;;;;-144.24;100.00;60536.00;5009084;28;45460;-70
2023/11/10 07:09:37;;;;;;;;;1.00;1.00;;;;;-144.24;100.00;60536.00;5013200;28;45446;-71
2023/11/10 07:12:02;;;;;;;;;2.33;0.33;;;;;-144.24;100.00;60536.00;5010791;28;45513;-70
2023/11/10 07:14:28;;;;;;;;;0.67;0.67;;;;;-144.24;100.00;60536.00;5006572;28;45602;-69
2023/11/10 07:16:53;;;;;;;;;0.67;0.67;;;;;-144.24;100.00;60536.00;5000867;28;68391;-70
2023/11/10 07:19:18;;;;;;;;;0.67;0.00;;;;;-144.24;100.00;60536.00;5008026;28;68893;-70
2023/11/10 07:21:44;;;;;;;;;0.00;0.00;;;;;-144.24;100.00;60536.00;5008455;28;56609;-70
2023/11/10 07:24:10;;;;;;;;;0.00;0.00;;;;;-144.24;100.00;60536.00;5012526;28;46103;-70
2023/11/10 07:26:36;;;;;;;;;1.67;0.00;;;;;-144.24;100.00;60536.00;5011137;28;46124;-71
2023/11/10 07:29:03;;;;;;;;;1.00;0.00;;;;;-144.24;100.00;60536.00;5011064;28;45516;-71
2023/11/10 07:31:28;;;;;;;;;1.33;0.00;;;;;-144.24;100.00;60536.00;5016182;28;45550;-72
2023/11/10 07:33:55;;;;;;;;;2.00;0.00;;;;;-144.24;100.00;60536.00;5012505;28;64274;-71
2023/11/10 07:36:20;;;;;;;;;3.33;1.00;;;;;-144.24;100.00;60536.00;5013738;28;45576;-70
2023/11/10 07:38:46;;;;;;;;;1.67;0.00;;;;;-144.24;100.00;60536.00;5015969;28;45478;-71
2023/11/10 07:41:11;;;;;;;;;1.00;0.67;;;;;-144.24;100.00;60536.00;5008325;28;59609;-71
2023/11/10 07:43:36;;;;;;;;;3.33;1.00;;;;;-144.24;100.00;60536.00;5014069;28;73009;-70
2023/11/10 07:46:04;;;;;;;;;2.67;0.00;;;;;-144.24;100.00;60536.00;4997431;28;46308;-71
2023/11/10 07:48:30;;;;;;;;;2.00;1.00;;;;;-144.24;100.00;60536.00;4953710;23;45716;-70
2023/11/10 07:50:56;;;;;;;;;2.00;0.00;;;;;-144.24;100.00;60536.00;4952232;28;45490;-67
2023/11/10 07:53:22;;;;;;;;;2.33;1.00;;;;;-144.24;100.00;60536.00;4957094;28;46538;-70
2023/11/10 07:55:47;;;;;;;;;1.00;0.33;;;;;-144.24;100.00;60536.00;4976237;28;73552;-69
2023/11/10 07:58:13;;;;;;;;;0.00;0.00;;;;;-144.24;100.00;60536.00;4976029;28;45355;-70
2023/11/10 08:00:39;;;;;;;;;1.33;0.00;;;;;-144.24;100.00;60536.00;4976429;28;46426;-70
2023/11/10 08:03:04;;;;;;;;;0.00;0.00;;;;;-144.24;100.00;60536.00;4970001;28;72396;-71
2023/11/10 08:05:30;;;;;;;;;3.00;1.00;;;;;-144.24;100.00;60536.00;4953487;28;45537;-70
2023/11/10 08:07:55;;;;;;;;;2.33;0.00;;;;;-144.24;100.00;60536.00;4976309;28;45486;-70
2023/11/10 08:10:21;;;;;;;;;2.00;1.00;;;;;-144.24;100.00;60536.00;4976525;28;45620;-70
2023/11/10 08:12:46;;;;;;;;;2.33;1.00;;;;;-144.24;100.00;60536.00;4975609;28;46499;-70
2023/11/10 08:15:14;;;;;;;;;0.00;0.00;;;;;-144.24;100.00;60536.00;4974704;28;72387;-71
2023/11/10 08:17:40;;;;;;;;;2.00;1.00;;;;;-144.24;100.00;60536.00;4975022;28;45536;-69
2023/11/10 08:20:06;;;;;;;;;1.00;1.00;;;;;-144.24;100.00;60536.00;4976182;28;53778;-69
2023/11/10 08:22:31;;;;;;;;;0.00;0.00;;;;;-144.24;100.00;60536.00;4974447;28;45588;-70
2023/11/10 08:24:57;;;;;;;;;0.67;0.00;;;;;-144.24;100.00;60536.00;4960598;28;45448;-70
2023/11/10 08:27:22;;;;;;;;;0.67;0.00;;;;;-144.24;100.00;60536.00;4971885;28;69969;-69
2023/11/10 08:29:48;;;;;;;;;3.33;1.00;;;;;-144.24;100.00;60536.00;4973976;28;45504;-70
2023/11/10 08:32:13;;;;;;;;;2.00;0.33;;;;;-144.24;100.00;60536.00;4973860;28;46624;-70
2023/11/10 08:34:38;;;;;;;;;2.67;1.00;;;;;-144.24;100.00;60536.00;4972186;28;45488;-70
2023/11/10 08:37:04;;;;;;;;;4.33;0.33;;;;;-144.24;100.00;60536.00;4974437;28;45361;-70
2023/11/10 08:39:29;;;;;;;;;2.00;1.00;;;;;-144.24;100.00;60536.00;4975094;28;50855;-70
2023/11/10 08:41:54;;;;;;;;;2.33;1.00;;;;;-144.24;100.00;60536.00;4976335;28;46323;-70
2023/11/10 08:44:23;;;;;;;;;0.67;0.67;;;;;-144.24;100.00;60536.00;4971659;28;56760;-70
2023/11/10 08:46:50;;;;;;;;;2.33;1.00;;;;;-144.24;100.00;60536.00;4976517;28;45462;-70
2023/11/10 08:49:15;;;;;;;;;5.33;0.00;;;;;-144.24;100.00;60536.00;4973459;28;45459;-70
2023/11/10 08:51:41;;;;;;;;;0.67;0.67;;;;;-144.24;100.00;60536.00;4956525;28;47594;-70
2023/11/10 08:54:08;;;;;;;;;2.00;0.67;;;;;-144.24;100.00;60536.00;4957575;28;45357;-70
2023/11/10 08:56:33;;;;;;;;;1.33;0.00;;;;;-144.24;100.00;60536.00;4975756;28;45453;-70
2023/11/10 08:58:58;;;;;;;;;3.00;1.33;;;;;-144.24;100.00;60536.00;4971793;28;45527;-67
2023/11/10 09:01:24;;;;;;;;;8.00;1.00;;;;;-144.24;100.00;60536.00;4974595;28;75056;-71
2023/11/10 09:03:49;;;;;;;;;2.00;0.00;;;;;-144.24;100.00;60536.00;4975824;28;45570;-70
2023/11/10 09:06:14;;;;;;;;;3.00;0.00;;;;;-144.24;100.00;60536.00;4974920;28;64244;-70
2023/11/10 09:08:41;;;;;;;;;2.00;1.00;;;;;-144.24;100.00;60536.00;4974841;28;45462;-71
2023/11/10 09:11:06;;;;;;;;;2.00;1.00;;;;;-144.24;100.00;60536.00;4974390;28;45621;-71
2023/11/10 09:13:32;;;;;;;;;1.33;0.00;;;;;-144.24;100.00;60536.00;4976067;28;45470;-70
2023/11/10 09:15:58;;;;;;;;;3.00;0.00;;;;;-144.24;100.00;60536.00;4975231;28;45481;-70
2023/11/10 09:18:23;;;;;;;;;1.00;1.00;;;;;-144.24;100.00;60536.00;4975169;28;45588;-71
2023/11/10 09:20:49;;;;;;;;;1.00;1.00;;;;;-144.24;100.00;60536.00;4974508;28;47237;-70
2023/11/10 09:23:14;;;;;;;;;5.00;0.00;;;;;-144.24;100.00;60536.00;4975662;28;45611;-70
2023/11/10 09:25:39;;;;;;;;;3.00;0.00;;;;;-144.24;100.00;60536.00;4971605;28;45506;-71
2023/11/10 09:28:05;;;;;;;;;2.00;0.67;;;;;-144.24;100.00;60536.00;4973298;28;63054;-70
2023/11/10 09:30:33;;;;;;;;;1.00;1.00;;;;;-144.24;100.00;60536.00;4974929;28;46536;-70
2023/11/10 09:32:59;;;;;;;;;0.00;0.00;;;;;-144.24;100.00;60536.00;4974040;28;45581;-70
2023/11/10 09:35:24;;;;;;;;;2.00;0.00;;;;;-144.24;100.00;60536.00;4973700;28;45444;-71
2023/11/10 09:37:50;;;;;;;;;1.33;1.00;;;;;-144.24;100.00;60536.00;4974551;28;45462;-70
2023/11/10 09:40:16;;;;;;;;;2.00;1.00;;;;;-144.24;100.00;60536.00;4974293;28;46292;-72
2023/11/10 09:42:42;;;;;;;;;3.00;1.00;;;;;-144.24;100.00;60536.00;4971439;28;45497;-71
2023/11/10 09:45:08;;;;;;;;;2.00;1.00;;;;;-144.24;100.00;60536.00;4970854;28;45409;-71
2023/11/10 09:47:33;;;;;;;;;8.33;1.00;;;;;-144.24;100.00;60536.00;4970602;28;45535;-71
2023/11/10 09:50:00;;;;;;;;;2.00;0.00;;;;;-144.24;100.00;60536.00;4972894;28;46676;-70
2023/11/10 09:52:27;;;;;;;;;4.33;0.00;;;;;-144.24;100.00;60536.00;4956618;28;45484;-71
2023/11/10 09:54:54;;;;;;;;;2.00;0.67;;;;;-144.24;100.00;60536.00;4951401;28;45487;-70
2023/11/10 09:57:20;;;;;;;;;3.00;2.00;;;;;-144.24;100.00;60536.00;4973872;28;45455;-71
2023/11/10 09:59:47;;;;;;;;;1.33;1.00;;;;;-144.24;100.00;60536.00;4974377;28;45478;-71
2023/11/10 10:02:13;;;;;;;;;6.33;1.00;;;;;-144.24;100.00;60536.00;4973617;28;45527;-71
2023/11/10 10:04:41;;;;;;;;;3.00;1.00;;;;;-144.24;100.00;60536.00;4972684;28;45531;-70
2023/11/10 10:07:09;;;;;;;;;1.00;1.00;;;;;-144.24;100.00;60536.00;4974173;28;45620;-70
2023/11/10 10:09:35;;;;;;;;;5.33;0.33;;;;;-144.24;100.00;60536.00;4974635;28;47561;-70
2023/11/10 10:12:00;;;;;;;;;3.67;1.00;;;;;-144.24;100.00;60536.00;4972351;28;71511;-71
2023/11/10 10:14:28;;;;;;;;;5.00;1.00;;;;;-144.24;100.00;60536.00;4971273;28;45542;-71
2023/11/10 10:16:54;;;;;;;;;4.67;1.00;;;;;-144.24;100.00;60536.00;4975045;28;45575;-71
2023/11/10 10:19:24;;;;;;;;;0.00;0.00;;;;;-144.24;100.00;60536.00;4956330;28;46362;-71
2023/11/10 10:21:49;;;;;;;;;1.00;1.00;;;;;-144.24;100.00;60536.00;4974004;28;45977;-71
2023/11/10 10:24:14;;;;;;;;;2.33;1.00;;;;;-144.24;100.00;60536.00;4974048;28;45597;-70
2023/11/10 10:26:40;;;;;;;;;1.67;1.33;;;;;-144.24;100.00;60536.00;4973768;28;58488;-71
2023/11/10 10:29:05;;;;;;;;;3.00;1.33;;;;;-144.24;100.00;60536.00;4973882;28;47031;-71
2023/11/10 10:31:32;;;;;;;;;4.00;1.00;;;;;-144.24;100.00;60536.00;4974263;28;45548;-70
2023/11/10 10:34:02;;;;;;;;;5.00;2.00;;;;;-144.24;100.00;60536.00;4973577;28;45441;-70
2023/11/10 10:36:27;;;;;;;;;3.00;1.00;;;;;-144.24;100.00;60536.00;4974271;28;45516;-69
2023/11/10 10:38:53;;;;;;;;;1.67;1.67;;;;;-144.24;100.00;60536.00;4956546;28;45551;-70
2023/11/10 10:41:24;;;;;;;;;9.67;2.00;;;;;-144.24;100.00;60536.00;4973034;28;45790;-69
2023/11/10 10:43:50;;;;;;;;;4.67;1.00;;;;;-144.24;100.00;60536.00;4974559;28;45451;-69
2023/11/10 10:46:19;;;;;;;;;2.00;0.67;;;;;-144.24;100.00;60536.00;4971973;28;45527;-70
2023/11/10 10:48:46;;;;;;;;;5.00;1.33;;;;;-144.24;100.00;60536.00;4971586;28;46606;-70
2023/11/10 10:51:12;;;;;;;;;5.33;0.33;;;;;-144.24;100.00;60536.00;4968519;28;46873;-69
2023/11/10 10:53:39;;;;;;;;;6.33;1.00;;;;;-144.24;100.00;60536.00;4953635;28;46956;-70
2023/11/10 10:56:07;;;;;;;;;4.33;1.67;;;;;-144.24;100.00;60536.00;4955562;28;45660;-71
2023/11/10 10:58:33;;;;;;;;;3.00;0.00;;;;;-144.24;100.00;60536.00;4975755;28;45722;-70
2023/11/10 11:00:59;;;;;;;;;5.00;0.00;;;;;-144.24;100.00;60536.00;4975045;28;45518;-70
2023/11/10 11:03:43;;;;;;;;;4.67;0.00;;;;;-144.24;100.00;60536.00;4976082;28;45815;-70